FLI05YT EKVG-EGPH
Flight info
| Callsign | FLI05YT |
|---|---|
| Flight time | 1h 11m |
| Altitude | 37000 |
| Route | ODEVA DCT NALAN DCT LAGAV/N0363F240 N560 FOYLE DCT STIRA |
| Aircraft | A320/M-SDE3FGHIRWY/LB1 |
Departure
| Time | 2026-05-05 20:15 |
|---|---|
| Airport | Vágar Airport (EKVG) |
Arrival
| Time | 2026-05-05 21:27 |
|---|---|
| Airport | Edinburgh Airport (EGPH) |
| Time | Latitude | Longitude | Altitude | Speed | Heading |
|---|---|---|---|---|---|
| 2026-05-05 19:46 | 62.06685 | -7.27921 | 293 ft | 0 kts | 28° |
| 2026-05-05 20:07 | 62.06669 | -7.27938 | 297 ft | 4 kts | 17° |
| 2026-05-05 20:07 | 62.06645 | -7.27944 | 294 ft | 4 kts | 337° |
| 2026-05-05 20:07 | 62.06632 | -7.27921 | 296 ft | 0 kts | 285° |
| 2026-05-05 20:10 | 62.06633 | -7.27924 | 292 ft | 0 kts | 285° |
| 2026-05-05 20:10 | 62.06634 | -7.27931 | 292 ft | 1 kts | 285° |
| 2026-05-05 20:10 | 62.06638 | -7.27963 | 295 ft | 3 kts | 285° |
| 2026-05-05 20:11 | 62.06642 | -7.28000 | 292 ft | 3 kts | 279° |
| 2026-05-05 20:11 | 62.06615 | -7.28060 | 293 ft | 10 kts | 198° |
| 2026-05-05 20:11 | 62.06545 | -7.28096 | 296 ft | 10 kts | 193° |
| 2026-05-05 20:11 | 62.06481 | -7.28130 | 298 ft | 8 kts | 188° |
| 2026-05-05 20:12 | 62.06440 | -7.28069 | 294 ft | 9 kts | 124° |
| 2026-05-05 20:12 | 62.06404 | -7.27926 | 295 ft | 11 kts | 118° |
| 2026-05-05 20:12 | 62.06365 | -7.27769 | 293 ft | 17 kts | 117° |
| 2026-05-05 20:12 | 62.06295 | -7.27486 | 287 ft | 23 kts | 117° |
| 2026-05-05 20:13 | 62.06218 | -7.27174 | 282 ft | 24 kts | 117° |
| 2026-05-05 20:13 | 62.06143 | -7.26866 | 281 ft | 23 kts | 117° |
| 2026-05-05 20:13 | 62.06067 | -7.26570 | 279 ft | 23 kts | 118° |
| 2026-05-05 20:13 | 62.05990 | -7.26260 | 276 ft | 24 kts | 117° |
| 2026-05-05 20:14 | 62.05945 | -7.26090 | 270 ft | 6 kts | 143° |
| 2026-05-05 20:14 | 62.05940 | -7.26063 | 269 ft | 0 kts | 52° |
| 2026-05-05 20:14 | 62.05944 | -7.26066 | 269 ft | 1 kts | 4° |
| 2026-05-05 20:14 | 62.05947 | -7.26084 | 270 ft | 2 kts | 297° |
| 2026-05-05 20:15 | 62.05948 | -7.26087 | 270 ft | 0 kts | 297° |
| 2026-05-05 20:15 | 62.06042 | -7.26465 | 277 ft | 68 kts | 298° |
| 2026-05-05 20:15 | 62.06375 | -7.27768 | 313 ft | 126 kts | 303° |
| 2026-05-05 20:15 | 62.06800 | -7.29473 | 893 ft | 131 kts | 300° |
| 2026-05-05 20:16 | 62.07226 | -7.31198 | 1719 ft | 130 kts | 299° |
| 2026-05-05 20:16 | 62.07570 | -7.33016 | 2340 ft | 138 kts | 290° |
| 2026-05-05 20:16 | 62.07886 | -7.35110 | 2673 ft | 159 kts | 290° |
| 2026-05-05 20:16 | 62.08242 | -7.37460 | 3070 ft | 176 kts | 290° |
| 2026-05-05 20:17 | 62.08646 | -7.40122 | 3460 ft | 198 kts | 290° |
| 2026-05-05 20:17 | 62.09092 | -7.43075 | 4011 ft | 217 kts | 289° |
| 2026-05-05 20:17 | 62.09479 | -7.46164 | 4983 ft | 221 kts | 281° |
| 2026-05-05 20:17 | 62.09562 | -7.49481 | 5974 ft | 227 kts | 269° |
| 2026-05-05 20:18 | 62.09294 | -7.52852 | 6934 ft | 234 kts | 257° |
| 2026-05-05 20:18 | 62.08656 | -7.56096 | 7885 ft | 241 kts | 245° |
| 2026-05-05 20:18 | 62.07669 | -7.59000 | 8829 ft | 249 kts | 231° |
| 2026-05-05 20:18 | 62.06324 | -7.61422 | 9791 ft | 257 kts | 217° |
| 2026-05-05 20:19 | 62.04687 | -7.63102 | 10670 ft | 266 kts | 201° |
| 2026-05-05 20:19 | 62.02844 | -7.63848 | 11524 ft | 275 kts | 186° |
| 2026-05-05 20:19 | 62.00913 | -7.63532 | 12379 ft | 282 kts | 170° |
| 2026-05-05 20:19 | 61.99056 | -7.62078 | 13237 ft | 289 kts | 153° |
| 2026-05-05 20:20 | 61.97416 | -7.59535 | 14062 ft | 296 kts | 136° |
| 2026-05-05 20:20 | 61.96154 | -7.56047 | 14744 ft | 302 kts | 118° |
| 2026-05-05 20:20 | 61.95406 | -7.51844 | 15410 ft | 307 kts | 99° |
| 2026-05-05 20:20 | 61.95135 | -7.47276 | 15886 ft | 321 kts | 93° |
| 2026-05-05 20:21 | 61.94896 | -7.42381 | 16100 ft | 344 kts | 94° |
| 2026-05-05 20:21 | 61.94641 | -7.37162 | 16260 ft | 367 kts | 94° |
| 2026-05-05 20:21 | 61.94361 | -7.31651 | 16671 ft | 380 kts | 94° |
| 2026-05-05 20:21 | 61.94061 | -7.26018 | 17265 ft | 388 kts | 94° |
| 2026-05-05 20:22 | 61.93748 | -7.20271 | 17898 ft | 395 kts | 95° |
| 2026-05-05 20:22 | 61.93428 | -7.14464 | 18646 ft | 397 kts | 95° |
| 2026-05-05 20:22 | 61.93106 | -7.08612 | 19239 ft | 401 kts | 95° |
| 2026-05-05 20:22 | 61.92782 | -7.02684 | 19795 ft | 407 kts | 95° |
| 2026-05-05 20:23 | 61.92451 | -6.96676 | 20341 ft | 413 kts | 95° |
| 2026-05-05 20:23 | 61.92110 | -6.90587 | 20891 ft | 418 kts | 95° |
| 2026-05-05 20:23 | 61.91763 | -6.84417 | 21433 ft | 424 kts | 95° |
| 2026-05-05 20:23 | 61.91378 | -6.78173 | 21965 ft | 430 kts | 99° |
| 2026-05-05 20:24 | 61.90531 | -6.72049 | 22498 ft | 437 kts | 113° |
| 2026-05-05 20:24 | 61.89100 | -6.66426 | 23021 ft | 440 kts | 127° |
| 2026-05-05 20:24 | 61.87129 | -6.61490 | 23561 ft | 440 kts | 141° |
| 2026-05-05 20:24 | 61.84730 | -6.57527 | 24010 ft | 436 kts | 154° |
| 2026-05-05 20:25 | 61.82032 | -6.54687 | 24483 ft | 430 kts | 167° |
| 2026-05-05 20:25 | 61.79206 | -6.52692 | 24965 ft | 430 kts | 169° |
| 2026-05-05 20:25 | 61.76353 | -6.50738 | 25399 ft | 432 kts | 170° |
| 2026-05-05 20:25 | 61.73474 | -6.48780 | 25816 ft | 436 kts | 170° |
| 2026-05-05 20:26 | 61.70574 | -6.46823 | 26264 ft | 439 kts | 170° |
| 2026-05-05 20:26 | 61.67659 | -6.44858 | 26712 ft | 442 kts | 170° |
| 2026-05-05 20:26 | 61.64723 | -6.42875 | 27151 ft | 444 kts | 170° |
| 2026-05-05 20:26 | 61.61773 | -6.40881 | 27586 ft | 447 kts | 170° |
| 2026-05-05 20:27 | 61.58803 | -6.38872 | 28006 ft | 449 kts | 169° |
| 2026-05-05 20:27 | 61.55821 | -6.36856 | 28428 ft | 452 kts | 169° |
| 2026-05-05 20:27 | 61.53837 | -6.35518 | 28718 ft | 453 kts | 169° |
| 2026-05-05 20:27 | 61.50825 | -6.33493 | 29163 ft | 455 kts | 169° |
| 2026-05-05 20:28 | 61.47796 | -6.31461 | 29579 ft | 457 kts | 169° |
| 2026-05-05 20:28 | 61.44762 | -6.29431 | 29959 ft | 460 kts | 169° |
| 2026-05-05 20:28 | 61.41705 | -6.27394 | 30307 ft | 462 kts | 169° |
| 2026-05-05 20:28 | 61.38629 | -6.25351 | 30603 ft | 464 kts | 169° |
| 2026-05-05 20:29 | 61.35542 | -6.23303 | 30897 ft | 467 kts | 169° |
| 2026-05-05 20:29 | 61.32442 | -6.21247 | 31176 ft | 469 kts | 169° |
| 2026-05-05 20:29 | 61.29329 | -6.19187 | 31464 ft | 471 kts | 168° |
| 2026-05-05 20:29 | 61.26202 | -6.17123 | 31731 ft | 473 kts | 168° |
| 2026-05-05 20:30 | 61.23055 | -6.15047 | 32041 ft | 473 kts | 168° |
| 2026-05-05 20:30 | 61.19955 | -6.12995 | 32416 ft | 473 kts | 168° |
| 2026-05-05 20:30 | 61.16828 | -6.10932 | 32766 ft | 471 kts | 168° |
| 2026-05-05 20:30 | 61.13699 | -6.08882 | 33148 ft | 471 kts | 168° |
| 2026-05-05 20:31 | 61.10580 | -6.06853 | 33520 ft | 470 kts | 168° |
| 2026-05-05 20:31 | 61.07455 | -6.04825 | 33897 ft | 470 kts | 168° |
| 2026-05-05 20:31 | 61.04334 | -6.02807 | 34246 ft | 469 kts | 168° |
| 2026-05-05 20:31 | 61.01217 | -6.00793 | 34543 ft | 469 kts | 168° |
| 2026-05-05 20:32 | 60.98090 | -5.98873 | 34824 ft | 468 kts | 170° |
| 2026-05-05 20:32 | 60.94940 | -5.97161 | 35103 ft | 467 kts | 172° |
| 2026-05-05 20:32 | 60.91782 | -5.95619 | 35372 ft | 466 kts | 172° |
| 2026-05-05 20:32 | 60.88597 | -5.94155 | 35577 ft | 467 kts | 173° |
| 2026-05-05 20:33 | 60.85428 | -5.92719 | 35821 ft | 468 kts | 173° |
| 2026-05-05 20:33 | 60.82245 | -5.91251 | 36061 ft | 468 kts | 172° |
| 2026-05-05 20:33 | 60.79072 | -5.89743 | 36310 ft | 469 kts | 172° |
| 2026-05-05 20:33 | 60.75921 | -5.88210 | 36553 ft | 469 kts | 171° |
| 2026-05-05 20:34 | 60.72758 | -5.86650 | 36792 ft | 469 kts | 171° |
| 2026-05-05 20:34 | 60.69559 | -5.85067 | 37021 ft | 470 kts | 171° |
| 2026-05-05 20:34 | 60.66390 | -5.83508 | 37122 ft | 469 kts | 171° |
| 2026-05-05 20:35 | 60.60083 | -5.80443 | 37132 ft | 465 kts | 171° |
| 2026-05-05 20:35 | 60.53792 | -5.77434 | 37143 ft | 464 kts | 172° |
| 2026-05-05 20:36 | 60.47502 | -5.74439 | 37145 ft | 464 kts | 171° |
| 2026-05-05 20:36 | 60.41222 | -5.71419 | 37143 ft | 464 kts | 171° |
| 2026-05-05 20:37 | 60.34934 | -5.68433 | 37148 ft | 464 kts | 172° |
| 2026-05-05 20:37 | 60.28643 | -5.65458 | 37140 ft | 464 kts | 172° |
| 2026-05-05 20:38 | 60.22401 | -5.62516 | 37161 ft | 463 kts | 172° |
| 2026-05-05 20:38 | 60.16129 | -5.59577 | 37161 ft | 463 kts | 172° |
| 2026-05-05 20:39 | 60.09861 | -5.56643 | 37163 ft | 462 kts | 172° |
| 2026-05-05 20:39 | 60.03595 | -5.53711 | 37127 ft | 462 kts | 172° |
| 2026-05-05 20:40 | 59.97343 | -5.50793 | 37152 ft | 461 kts | 172° |
| 2026-05-05 20:40 | 59.91089 | -5.47880 | 37158 ft | 460 kts | 172° |
| 2026-05-05 20:41 | 59.84865 | -5.45004 | 37161 ft | 459 kts | 172° |
| 2026-05-05 20:41 | 59.78640 | -5.42155 | 37161 ft | 459 kts | 172° |
| 2026-05-05 20:42 | 59.72416 | -5.39324 | 37153 ft | 458 kts | 172° |
| 2026-05-05 20:42 | 59.66209 | -5.36496 | 37166 ft | 457 kts | 172° |
| 2026-05-05 20:43 | 59.60049 | -5.33690 | 37172 ft | 457 kts | 172° |
| 2026-05-05 20:43 | 59.53849 | -5.30896 | 37175 ft | 456 kts | 172° |
| 2026-05-05 20:44 | 59.47657 | -5.28111 | 37142 ft | 456 kts | 172° |
| 2026-05-05 20:44 | 59.41489 | -5.25344 | 37166 ft | 455 kts | 172° |
| 2026-05-05 20:45 | 59.32246 | -5.21223 | 37179 ft | 453 kts | 172° |
| 2026-05-05 20:45 | 59.26097 | -5.18490 | 37167 ft | 453 kts | 172° |
| 2026-05-05 20:46 | 59.19944 | -5.15769 | 37152 ft | 452 kts | 172° |
| 2026-05-05 20:46 | 59.13815 | -5.13066 | 37171 ft | 452 kts | 172° |
| 2026-05-05 20:47 | 59.07726 | -5.10378 | 37178 ft | 451 kts | 172° |
| 2026-05-05 20:47 | 59.01608 | -5.07697 | 37180 ft | 450 kts | 172° |
| 2026-05-05 20:48 | 58.95490 | -5.05030 | 37181 ft | 450 kts | 172° |
| 2026-05-05 20:48 | 58.89378 | -5.02379 | 37153 ft | 449 kts | 172° |
| 2026-05-05 20:49 | 58.83281 | -4.99737 | 37165 ft | 449 kts | 172° |
| 2026-05-05 20:49 | 58.77193 | -4.97106 | 37170 ft | 448 kts | 172° |
| 2026-05-05 20:50 | 58.71100 | -4.94482 | 37175 ft | 448 kts | 172° |
| 2026-05-05 20:50 | 58.65024 | -4.91862 | 37176 ft | 448 kts | 172° |
| 2026-05-05 20:51 | 58.58925 | -4.89259 | 37182 ft | 449 kts | 172° |
| 2026-05-05 20:51 | 58.52849 | -4.86672 | 37182 ft | 449 kts | 172° |
| 2026-05-05 20:52 | 58.46746 | -4.84086 | 37182 ft | 448 kts | 172° |
| 2026-05-05 20:52 | 58.40683 | -4.81527 | 37183 ft | 448 kts | 172° |
| 2026-05-05 20:53 | 58.34571 | -4.78944 | 37163 ft | 448 kts | 172° |
| 2026-05-05 20:53 | 58.28516 | -4.76393 | 37172 ft | 447 kts | 173° |
| 2026-05-05 20:54 | 58.22434 | -4.73854 | 37169 ft | 447 kts | 173° |
| 2026-05-05 20:54 | 58.16354 | -4.71322 | 37175 ft | 447 kts | 173° |
| 2026-05-05 20:55 | 58.10288 | -4.68778 | 37142 ft | 447 kts | 173° |
| 2026-05-05 20:55 | 58.04219 | -4.66267 | 37168 ft | 446 kts | 173° |
| 2026-05-05 20:56 | 57.98163 | -4.63795 | 37181 ft | 445 kts | 173° |
| 2026-05-05 20:56 | 57.92102 | -4.61312 | 37174 ft | 445 kts | 173° |
| 2026-05-05 20:57 | 57.86087 | -4.58836 | 37172 ft | 445 kts | 173° |
| 2026-05-05 20:57 | 57.80043 | -4.56363 | 37153 ft | 444 kts | 173° |
| 2026-05-05 20:58 | 57.74001 | -4.53913 | 37158 ft | 444 kts | 173° |
| 2026-05-05 20:58 | 57.67965 | -4.51464 | 37160 ft | 443 kts | 173° |
| 2026-05-05 20:59 | 57.61939 | -4.49030 | 37154 ft | 443 kts | 173° |
| 2026-05-05 20:59 | 57.55916 | -4.46601 | 37121 ft | 442 kts | 172° |
| 2026-05-05 21:00 | 57.49902 | -4.44184 | 37026 ft | 443 kts | 172° |
| 2026-05-05 21:00 | 57.46882 | -4.42971 | 36364 ft | 440 kts | 173° |
| 2026-05-05 21:00 | 57.43938 | -4.41778 | 35883 ft | 429 kts | 173° |
| 2026-05-05 21:01 | 57.41035 | -4.40609 | 35359 ft | 426 kts | 173° |
| 2026-05-05 21:01 | 57.38148 | -4.39458 | 34822 ft | 423 kts | 173° |
| 2026-05-05 21:01 | 57.35273 | -4.38319 | 34290 ft | 421 kts | 173° |
| 2026-05-05 21:01 | 57.32421 | -4.37192 | 33699 ft | 418 kts | 174° |
| 2026-05-05 21:02 | 57.29588 | -4.36070 | 33151 ft | 414 kts | 173° |
| 2026-05-05 21:02 | 57.26789 | -4.34958 | 32646 ft | 409 kts | 173° |
| 2026-05-05 21:02 | 57.24016 | -4.33861 | 32145 ft | 406 kts | 173° |
| 2026-05-05 21:02 | 57.21263 | -4.32777 | 31634 ft | 403 kts | 173° |
| 2026-05-05 21:03 | 57.18532 | -4.31703 | 31135 ft | 400 kts | 173° |
| 2026-05-05 21:03 | 57.15818 | -4.30637 | 30644 ft | 397 kts | 173° |
| 2026-05-05 21:03 | 57.13121 | -4.29582 | 30155 ft | 394 kts | 174° |
| 2026-05-05 21:03 | 57.10446 | -4.28539 | 29634 ft | 391 kts | 174° |
| 2026-05-05 21:04 | 57.07806 | -4.27509 | 29183 ft | 386 kts | 174° |
| 2026-05-05 21:04 | 57.05200 | -4.26491 | 28730 ft | 381 kts | 174° |
| 2026-05-05 21:04 | 57.02648 | -4.25490 | 28279 ft | 377 kts | 173° |
| 2026-05-05 21:04 | 57.00064 | -4.24477 | 27874 ft | 372 kts | 173° |
| 2026-05-05 21:05 | 56.97574 | -4.23504 | 27422 ft | 369 kts | 173° |
| 2026-05-05 21:05 | 56.95073 | -4.22529 | 27001 ft | 365 kts | 173° |
| 2026-05-05 21:05 | 56.92602 | -4.21569 | 26579 ft | 362 kts | 173° |
| 2026-05-05 21:05 | 56.90138 | -4.20780 | 26151 ft | 355 kts | 180° |
| 2026-05-05 21:06 | 56.87700 | -4.20725 | 25737 ft | 347 kts | 190° |
| 2026-05-05 21:06 | 56.85328 | -4.21242 | 25313 ft | 342 kts | 193° |
| 2026-05-05 21:06 | 56.82975 | -4.21809 | 24885 ft | 340 kts | 193° |
| 2026-05-05 21:06 | 56.80639 | -4.22370 | 24452 ft | 338 kts | 193° |
| 2026-05-05 21:07 | 56.78310 | -4.22936 | 24020 ft | 336 kts | 193° |
| 2026-05-05 21:07 | 56.75990 | -4.23502 | 23531 ft | 335 kts | 192° |
| 2026-05-05 21:07 | 56.73688 | -4.24060 | 23086 ft | 333 kts | 192° |
| 2026-05-05 21:07 | 56.71400 | -4.24606 | 22655 ft | 330 kts | 192° |
| 2026-05-05 21:08 | 56.69129 | -4.25153 | 22210 ft | 328 kts | 192° |
| 2026-05-05 21:08 | 56.66904 | -4.25693 | 21796 ft | 327 kts | 192° |
| 2026-05-05 21:08 | 56.64656 | -4.26236 | 21372 ft | 325 kts | 192° |
| 2026-05-05 21:08 | 56.62388 | -4.26779 | 20943 ft | 324 kts | 192° |
| 2026-05-05 21:09 | 56.60181 | -4.27305 | 20527 ft | 323 kts | 192° |
| 2026-05-05 21:09 | 56.57953 | -4.27838 | 20105 ft | 323 kts | 192° |
| 2026-05-05 21:09 | 56.55729 | -4.28372 | 19690 ft | 322 kts | 192° |
| 2026-05-05 21:09 | 56.53504 | -4.28906 | 19277 ft | 322 kts | 192° |
| 2026-05-05 21:10 | 56.51284 | -4.29437 | 18869 ft | 321 kts | 192° |
| 2026-05-05 21:10 | 56.49069 | -4.29975 | 18449 ft | 321 kts | 192° |
| 2026-05-05 21:10 | 56.46861 | -4.30511 | 18008 ft | 320 kts | 192° |
| 2026-05-05 21:10 | 56.44657 | -4.31046 | 17602 ft | 319 kts | 192° |
| 2026-05-05 21:11 | 56.42462 | -4.31577 | 17204 ft | 318 kts | 192° |
| 2026-05-05 21:11 | 56.40276 | -4.32102 | 16802 ft | 316 kts | 192° |
| 2026-05-05 21:11 | 56.38098 | -4.32623 | 16418 ft | 316 kts | 192° |
| 2026-05-05 21:11 | 56.35922 | -4.33138 | 16033 ft | 315 kts | 191° |
| 2026-05-05 21:12 | 56.33749 | -4.33651 | 15646 ft | 314 kts | 191° |
| 2026-05-05 21:12 | 56.31585 | -4.34165 | 15264 ft | 314 kts | 191° |
| 2026-05-05 21:12 | 56.29420 | -4.34680 | 14882 ft | 314 kts | 191° |
| 2026-05-05 21:12 | 56.27990 | -4.35020 | 14657 ft | 312 kts | 191° |
| 2026-05-05 21:13 | 56.25177 | -4.35682 | 14530 ft | 299 kts | 191° |
| 2026-05-05 21:13 | 56.23815 | -4.36000 | 14447 ft | 300 kts | 191° |
| 2026-05-05 21:13 | 56.21608 | -4.36536 | 14295 ft | 338 kts | 191° |
| 2026-05-05 21:13 | 56.19180 | -4.37126 | 14155 ft | 369 kts | 191° |
| 2026-05-05 21:14 | 56.16526 | -4.37764 | 13989 ft | 398 kts | 190° |
| 2026-05-05 21:14 | 56.13738 | -4.38421 | 13793 ft | 407 kts | 189° |
| 2026-05-05 21:14 | 56.10899 | -4.38412 | 13203 ft | 411 kts | 170° |
| 2026-05-05 21:14 | 56.08286 | -4.36448 | 12807 ft | 407 kts | 146° |
| 2026-05-05 21:15 | 56.06329 | -4.32907 | 12316 ft | 395 kts | 124° |
| 2026-05-05 21:15 | 56.04979 | -4.28813 | 11832 ft | 369 kts | 119° |
| 2026-05-05 21:15 | 56.03753 | -4.24926 | 11396 ft | 347 kts | 119° |
| 2026-05-05 21:15 | 56.02599 | -4.21267 | 10988 ft | 329 kts | 119° |
| 2026-05-05 21:16 | 56.01497 | -4.17791 | 10590 ft | 313 kts | 121° |
| 2026-05-05 21:16 | 56.00290 | -4.14717 | 10220 ft | 300 kts | 129° |
| 2026-05-05 21:16 | 55.98957 | -4.11961 | 9827 ft | 287 kts | 133° |
| 2026-05-05 21:16 | 55.97617 | -4.09425 | 9466 ft | 274 kts | 134° |
| 2026-05-05 21:17 | 55.96323 | -4.07029 | 9125 ft | 262 kts | 134° |
| 2026-05-05 21:17 | 55.95066 | -4.04683 | 8800 ft | 261 kts | 133° |
| 2026-05-05 21:17 | 55.93825 | -4.02332 | 8463 ft | 259 kts | 133° |
| 2026-05-05 21:17 | 55.92607 | -3.99985 | 8119 ft | 257 kts | 133° |
| 2026-05-05 21:18 | 55.91411 | -3.97657 | 7809 ft | 251 kts | 132° |
| 2026-05-05 21:18 | 55.90259 | -3.95406 | 7499 ft | 240 kts | 132° |
| 2026-05-05 21:18 | 55.89160 | -3.93253 | 7206 ft | 230 kts | 132° |
| 2026-05-05 21:18 | 55.88101 | -3.91181 | 6925 ft | 224 kts | 132° |
| 2026-05-05 21:19 | 55.87058 | -3.89142 | 6681 ft | 221 kts | 132° |
| 2026-05-05 21:19 | 55.86033 | -3.87136 | 6331 ft | 217 kts | 131° |
| 2026-05-05 21:19 | 55.85034 | -3.85183 | 5967 ft | 213 kts | 130° |
| 2026-05-05 21:19 | 55.84038 | -3.83244 | 5675 ft | 206 kts | 130° |
| 2026-05-05 21:20 | 55.83090 | -3.81390 | 5419 ft | 199 kts | 127° |
| 2026-05-05 21:20 | 55.82391 | -3.79399 | 5241 ft | 189 kts | 109° |
| 2026-05-05 21:20 | 55.82114 | -3.77153 | 5089 ft | 185 kts | 90° |
| 2026-05-05 21:20 | 55.82262 | -3.74931 | 4909 ft | 180 kts | 71° |
| 2026-05-05 21:21 | 55.82796 | -3.72936 | 4688 ft | 178 kts | 58° |
| 2026-05-05 21:21 | 55.83439 | -3.71074 | 4448 ft | 176 kts | 58° |
| 2026-05-05 21:21 | 55.84073 | -3.69235 | 4200 ft | 173 kts | 58° |
| 2026-05-05 21:21 | 55.84670 | -3.67499 | 3974 ft | 156 kts | 58° |
| 2026-05-05 21:22 | 55.85211 | -3.65925 | 3757 ft | 143 kts | 59° |
| 2026-05-05 21:22 | 55.85716 | -3.64452 | 3546 ft | 137 kts | 59° |
| 2026-05-05 21:22 | 55.86206 | -3.63020 | 3361 ft | 134 kts | 60° |
| 2026-05-05 21:22 | 55.86688 | -3.61607 | 3189 ft | 133 kts | 60° |
| 2026-05-05 21:23 | 55.87168 | -3.60199 | 3016 ft | 132 kts | 60° |
| 2026-05-05 21:23 | 55.87655 | -3.58805 | 2868 ft | 132 kts | 60° |
| 2026-05-05 21:23 | 55.88143 | -3.57414 | 2668 ft | 132 kts | 62° |
| 2026-05-05 21:23 | 55.88616 | -3.56022 | 2473 ft | 132 kts | 62° |
| 2026-05-05 21:24 | 55.89085 | -3.54642 | 2269 ft | 131 kts | 62° |
| 2026-05-05 21:24 | 55.89551 | -3.53267 | 2068 ft | 131 kts | 62° |
| 2026-05-05 21:24 | 55.90021 | -3.51881 | 1876 ft | 130 kts | 63° |
| 2026-05-05 21:24 | 55.90497 | -3.50521 | 1704 ft | 130 kts | 62° |
| 2026-05-05 21:25 | 55.90965 | -3.49146 | 1516 ft | 130 kts | 62° |
| 2026-05-05 21:25 | 55.91429 | -3.47764 | 1343 ft | 130 kts | 62° |
| 2026-05-05 21:25 | 55.91895 | -3.46381 | 1158 ft | 130 kts | 61° |
| 2026-05-05 21:25 | 55.92365 | -3.45014 | 972 ft | 129 kts | 61° |
| 2026-05-05 21:26 | 55.92840 | -3.43636 | 806 ft | 130 kts | 61° |
| 2026-05-05 21:26 | 55.93312 | -3.42244 | 632 ft | 130 kts | 63° |
| 2026-05-05 21:26 | 55.93790 | -3.40826 | 415 ft | 131 kts | 60° |
| 2026-05-05 21:26 | 55.94250 | -3.39458 | 234 ft | 129 kts | 62° |
| 2026-05-05 21:27 | 55.94702 | -3.38104 | 114 ft | 117 kts | 61° |
| 2026-05-05 21:27 | 55.95042 | -3.37097 | 107 ft | 70 kts | 58° |
| 2026-05-05 21:27 | 55.95227 | -3.36557 | 104 ft | 41 kts | 59° |
| 2026-05-05 21:27 | 55.95227 | -3.36385 | 102 ft | 14 kts | 145° |
| 2026-05-05 21:28 | 55.95162 | -3.36321 | 104 ft | 0 kts | 155° |
| 2026-05-05 21:29 | 55.95160 | -3.36319 | 104 ft | 2 kts | 155° |
| 2026-05-05 21:29 | 55.95135 | -3.36316 | 104 ft | 6 kts | 191° |
| 2026-05-05 21:29 | 55.95099 | -3.36365 | 106 ft | 7 kts | 221° |
| 2026-05-05 21:29 | 55.95057 | -3.36384 | 107 ft | 8 kts | 172° |
| 2026-05-05 21:30 | 55.95006 | -3.36418 | 107 ft | 7 kts | 234° |
| 2026-05-05 21:30 | 55.94985 | -3.36481 | 107 ft | 2 kts | 237° |
| 2026-05-05 21:30 | 55.94976 | -3.36489 | 106 ft | 1 kts | 178° |
| 2026-05-05 21:30 | 55.94965 | -3.36477 | 106 ft | 2 kts | 155° |
| 2026-05-05 21:31 | 55.94951 | -3.36464 | 104 ft | 2 kts | 150° |
| 2026-05-05 21:31 | 55.94937 | -3.36448 | 105 ft | 2 kts | 147° |
| 2026-05-05 21:31 | 55.94918 | -3.36426 | 107 ft | 3 kts | 147° |
| 2026-05-05 21:31 | 55.94916 | -3.36423 | 107 ft | 0 kts | 147° |